createdAt,value
2019-02-04T00:00:20.611Z,100.00
2019-02-04T00:05:24.645Z,100.00
2019-02-04T00:10:28.731Z,100.00
2019-02-04T00:15:33.075Z,100.00
2019-02-04T00:20:37.368Z,100.00
2019-02-04T00:25:41.402Z,100.00
2019-02-04T00:30:45.489Z,100.00
2019-02-04T00:35:49.561Z,100.00
2019-02-04T00:40:53.585Z,100.00
2019-02-04T00:45:57.891Z,100.00
2019-02-04T00:51:03.104Z,100.00
2019-02-04T00:56:07.202Z,100.00
2019-02-04T01:01:11.272Z,100.00
2019-02-04T01:06:17.390Z,100.00
2019-02-04T01:11:21.721Z,100.00
2019-02-04T01:16:25.809Z,100.00
2019-02-04T01:21:29.909Z,100.00
2019-02-04T01:26:34.063Z,100.00
2019-02-04T01:31:38.122Z,100.00
2019-02-04T01:36:42.263Z,100.00
2019-02-04T01:41:46.329Z,100.00
2019-02-04T01:46:51.626Z,100.00
2019-02-04T01:51:55.756Z,100.00
2019-02-04T01:56:59.856Z,100.00
2019-02-04T02:02:04.207Z,100.00
2019-02-04T02:07:08.644Z,100.00
2019-02-04T02:12:12.703Z,100.00
2019-02-04T02:17:26.091Z,100.00
2019-02-04T02:22:22.670Z,100.00
2019-02-04T02:27:26.760Z,100.00
2019-02-04T02:32:30.841Z,100.00
2019-02-04T02:37:35.561Z,100.00
2019-02-04T02:42:39.995Z,100.00
2019-02-04T02:47:44.037Z,100.00
2019-02-04T02:52:51.165Z,100.00
2019-02-04T02:57:57.086Z,100.00
2019-02-04T03:03:01.164Z,100.00
2019-02-04T03:08:05.185Z,100.00
2019-02-04T03:13:09.440Z,100.00
2019-02-04T03:18:13.544Z,100.00
2019-02-04T03:23:17.609Z,100.00
2019-02-04T03:28:21.619Z,100.00
2019-02-04T03:33:25.800Z,100.00
2019-02-04T03:38:30.068Z,100.00
2019-02-04T03:43:34.365Z,100.00
2019-02-04T03:48:38.887Z,100.00
2019-02-04T03:53:43.146Z,100.00
2019-02-04T03:58:47.249Z,100.00
2019-02-04T04:03:51.323Z,100.00
2019-02-04T04:08:55.444Z,100.00
2019-02-04T04:13:59.510Z,100.00
2019-02-04T04:19:03.600Z,100.00
2019-02-04T04:24:07.646Z,100.00
2019-02-04T04:29:13.250Z,100.00
2019-02-04T04:34:17.334Z,100.00
2019-02-04T04:39:21.461Z,100.00
2019-02-04T04:44:25.514Z,100.00
2019-02-04T04:49:29.583Z,100.00
2019-02-04T04:54:33.748Z,100.00
2019-02-04T04:59:38.349Z,100.00
2019-02-04T05:04:42.387Z,100.00
2019-02-04T05:09:46.511Z,100.00
2019-02-04T05:14:50.850Z,100.00
2019-02-04T05:19:54.911Z,100.00
2019-02-04T05:24:59.008Z,100.00
2019-02-04T05:30:03.909Z,100.00
2019-02-04T05:35:08.065Z,100.00
2019-02-04T05:40:13.465Z,100.00
2019-02-04T05:45:18.270Z,100.00
2019-02-04T05:50:22.329Z,100.00
2019-02-04T05:55:26.409Z,100.00
2019-02-04T06:00:30.978Z,100.00
2019-02-04T06:05:35.098Z,100.00
2019-02-04T06:10:39.405Z,100.00
2019-02-04T06:15:43.490Z,100.00
2019-02-04T06:20:47.585Z,100.00
2019-02-04T06:25:51.663Z,100.00
2019-02-04T06:30:55.763Z,100.00
2019-02-04T06:35:59.846Z,100.00
2019-02-04T06:41:03.915Z,100.00
2019-02-04T06:46:08.440Z,100.00
2019-02-04T06:51:12.843Z,100.00
2019-02-04T06:56:16.993Z,100.00
2019-02-04T07:01:21.078Z,100.00
2019-02-04T07:06:25.218Z,100.00
2019-02-04T07:11:29.331Z,100.00
2019-02-04T07:16:33.402Z,100.00
2019-02-04T07:21:37.992Z,100.00
2019-02-04T07:26:42.067Z,100.00
2019-02-04T07:31:46.181Z,100.00
2019-02-04T07:36:50.667Z,100.00
2019-02-04T07:41:54.847Z,100.00
2019-02-04T07:47:00.166Z,100.00
2019-02-04T07:52:04.266Z,100.00
2019-02-04T07:57:08.337Z,100.00
2019-02-04T08:02:13.215Z,100.00
2019-02-04T08:07:17.340Z,100.00
2019-02-04T08:12:21.442Z,100.00
2019-02-04T08:17:25.483Z,100.00
2019-02-04T08:22:30.013Z,100.00
2019-02-04T08:27:34.090Z,100.00
2019-02-04T08:32:38.193Z,100.00
2019-02-04T08:37:42.543Z,100.00
2019-02-04T08:42:47.016Z,100.00
2019-02-04T08:47:51.374Z,100.00
2019-02-04T08:52:55.477Z,100.00
2019-02-04T08:57:59.535Z,100.00
2019-02-04T09:03:03.950Z,100.00
2019-02-04T09:08:08.187Z,100.00
2019-02-04T09:13:12.386Z,100.00
2019-02-04T09:18:16.489Z,100.00
2019-02-04T09:23:20.783Z,100.00
2019-02-04T09:28:24.860Z,100.00
2019-02-04T09:33:28.914Z,100.00
2019-02-04T09:38:33.150Z,100.00
2019-02-04T09:43:38.020Z,100.00
2019-02-04T09:48:42.123Z,100.00
2019-02-04T09:53:48.560Z,100.00
2019-02-04T09:58:54.024Z,100.00
2019-02-04T10:03:58.447Z,100.00
2019-02-04T10:09:04.047Z,98.71
2019-02-04T10:14:08.322Z,91.68
2019-02-04T10:19:12.673Z,91.37
2019-02-04T10:24:17.327Z,87.55
2019-02-04T10:29:21.430Z,83.34
2019-02-04T10:34:25.619Z,77.49
2019-02-04T10:39:30.339Z,72.33
2019-02-04T10:44:34.395Z,65.67
2019-02-04T10:49:38.670Z,59.18
2019-02-04T10:54:42.783Z,56.75
2019-02-04T10:59:47.093Z,54.19
2019-02-04T11:04:51.506Z,53.93
2019-02-04T11:09:56.298Z,53.15
2019-02-04T11:15:00.541Z,52.31
2019-02-04T11:20:07.117Z,52.14
2019-02-04T11:25:11.559Z,50.49
2019-02-04T11:30:18.987Z,51.39
2019-02-04T11:35:23.338Z,53.79
2019-02-04T11:40:33.009Z,54.54
2019-02-04T11:45:37.406Z,55.79
2019-02-04T11:50:43.039Z,53.78
2019-02-04T11:55:47.357Z,56.48
2019-02-04T12:00:51.778Z,56.71
2019-02-04T12:05:55.995Z,56.02
2019-02-04T12:11:08.102Z,56.23
2019-02-04T12:16:12.146Z,58.75
2019-02-04T12:21:21.507Z,58.43
2019-02-04T12:26:22.305Z,57.20
2019-02-04T12:31:26.475Z,56.41
2019-02-04T12:36:30.554Z,54.51
2019-02-04T12:41:34.894Z,55.11
2019-02-04T12:46:38.979Z,55.95
2019-02-04T12:51:43.165Z,56.12
2019-02-04T12:56:47.189Z,55.44
2019-02-04T13:01:51.333Z,56.17
2019-02-04T13:06:55.458Z,57.29
2019-02-04T13:11:59.474Z,57.85
2019-02-04T13:17:03.889Z,57.35
2019-02-04T13:22:08.272Z,58.20
2019-02-04T13:27:12.331Z,58.57
2019-02-04T13:32:18.473Z,58.17
2019-02-04T13:37:22.841Z,59.00
2019-02-04T13:42:26.913Z,59.51
2019-02-04T13:47:30.982Z,58.53
2019-02-04T13:52:35.132Z,61.30
2019-02-04T13:57:39.725Z,62.83
2019-02-04T14:02:44.085Z,62.67
2019-02-04T14:07:48.131Z,62.02
2019-02-04T14:12:52.408Z,63.10
2019-02-04T14:17:56.626Z,64.11
2019-02-04T14:23:01.059Z,64.93
2019-02-04T14:28:05.602Z,65.31
2019-02-04T14:33:10.066Z,65.70
2019-02-04T14:38:14.174Z,66.38
2019-02-04T14:43:22.067Z,65.63
2019-02-04T14:49:06.947Z,66.91
2019-02-04T14:54:50.616Z,67.44
2019-02-04T15:00:28.463Z,67.60
2019-02-04T15:05:52.440Z,68.43
2019-02-04T15:11:08.683Z,70.31
2019-02-04T15:16:46.050Z,71.78
2019-02-04T15:22:33.057Z,73.03
2019-02-04T15:28:02.427Z,74.76
2019-02-04T15:33:34.119Z,74.97
2019-02-04T15:39:08.423Z,76.99
2019-02-04T15:44:49.031Z,77.82
2019-02-04T15:50:45.915Z,79.70
2019-02-04T15:55:50.011Z,83.21
2019-02-04T16:00:54.447Z,84.73
2019-02-04T16:05:58.575Z,86.88
2019-02-04T16:11:02.742Z,87.70
2019-02-04T16:16:07.088Z,88.87
2019-02-04T16:21:11.199Z,89.86
2019-02-04T16:26:15.474Z,90.49
2019-02-04T16:31:22.323Z,91.50
2019-02-04T16:36:27.011Z,91.79
2019-02-04T16:41:31.181Z,92.88
2019-02-04T16:46:35.312Z,92.71
2019-02-04T16:51:39.445Z,92.34
2019-02-04T16:56:43.745Z,92.99
2019-02-04T17:01:47.872Z,93.65
2019-02-04T17:06:52.036Z,94.07
2019-02-04T17:11:56.132Z,95.22
2019-02-04T17:17:00.260Z,95.66
2019-02-04T17:22:04.515Z,96.31
2019-02-04T17:27:08.884Z,96.37
2019-02-04T17:32:12.912Z,95.68
2019-02-04T17:37:19.908Z,94.56
2019-02-04T17:42:27.284Z,92.98
2019-02-04T17:47:31.310Z,92.35
2019-02-04T17:52:35.339Z,91.20
2019-02-04T17:57:39.519Z,88.90
2019-02-04T18:02:43.954Z,90.10
2019-02-04T18:07:48.073Z,89.92
2019-02-04T18:12:52.148Z,90.13
2019-02-04T18:17:56.299Z,89.18
2019-02-04T18:23:00.465Z,89.40
2019-02-04T18:28:04.876Z,90.02
2019-02-04T18:33:09.800Z,90.89
2019-02-04T18:38:14.532Z,91.28
2019-02-04T18:43:19.078Z,91.14
2019-02-04T18:48:23.169Z,91.92
2019-02-04T18:53:27.253Z,91.29
2019-02-04T18:58:33.142Z,91.17
2019-02-04T19:03:38.469Z,91.06
2019-02-04T19:08:42.477Z,90.14
2019-02-04T19:13:46.589Z,89.52
2019-02-04T19:18:50.654Z,89.70
2019-02-04T19:23:54.993Z,89.18
2019-02-04T19:28:59.133Z,89.66
2019-02-04T19:34:03.455Z,88.52
2019-02-04T19:39:08.922Z,89.18
2019-02-04T19:44:12.993Z,89.74
2019-02-04T19:49:17.338Z,90.87
2019-02-04T19:54:21.868Z,91.23
2019-02-04T19:59:25.980Z,91.99
2019-02-04T20:04:30.032Z,91.71
2019-02-04T20:09:34.487Z,91.91
2019-02-04T20:14:38.676Z,92.07
2019-02-04T20:19:43.376Z,92.88
2019-02-04T20:24:47.515Z,92.30
2019-02-04T20:29:51.657Z,91.84
2019-02-04T20:34:55.779Z,91.26
2019-02-04T20:40:18.426Z,90.85
2019-02-04T20:45:23.518Z,89.94
2019-02-04T20:50:33.581Z,90.38
2019-02-04T20:55:37.678Z,89.80
2019-02-04T21:00:41.811Z,90.99
2019-02-04T21:05:45.953Z,91.58
2019-02-04T21:10:50.416Z,92.11
2019-02-04T21:15:54.576Z,91.86
2019-02-04T21:20:58.664Z,91.26
2019-02-04T21:26:03.133Z,90.17
2019-02-04T21:31:07.881Z,89.34
2019-02-04T21:36:13.300Z,89.22
2019-02-04T21:41:17.333Z,90.43
2019-02-04T21:46:21.480Z,89.58
2019-02-04T21:51:25.496Z,89.48
2019-02-04T21:56:29.861Z,89.24
2019-02-04T22:01:34.010Z,89.41
2019-02-04T22:06:38.045Z,89.60
2019-02-04T22:11:42.224Z,89.06
2019-02-04T22:16:46.758Z,87.84
2019-02-04T22:21:51.067Z,87.72
2019-02-04T22:26:55.068Z,86.48
2019-02-04T22:31:59.466Z,86.54
2019-02-04T22:37:03.964Z,86.74
2019-02-04T22:42:08.360Z,86.41
2019-02-04T22:47:12.456Z,86.96
2019-02-04T22:52:16.489Z,87.29
2019-02-04T22:57:20.698Z,87.40
2019-02-04T23:02:25.144Z,86.57
2019-02-04T23:07:29.467Z,86.64
2019-02-04T23:12:33.539Z,86.85
2019-02-04T23:17:37.604Z,86.00
2019-02-04T23:22:44.087Z,87.01
2019-02-04T23:27:47.827Z,87.29
2019-02-04T23:32:51.895Z,88.83
2019-02-04T23:37:56.208Z,89.78
2019-02-04T23:43:00.237Z,89.11
2019-02-04T23:48:04.726Z,88.89
2019-02-04T23:53:08.782Z,89.30
2019-02-04T23:58:13.213Z,87.85
